Portada
METAR-TAF:

METAR-TAF

Aeroports :

Thule, Grenlàndia

latitud: 76-32N, longitud: 068-42W, altitud: 77 m

Observació

L'informe es va fer fa 42 minuts, a les 03:56 UTC
Vent 6 kt del Est
Temperatura -5°C
Humitat 68%
Pressió 998 hPa
Visibilitat 10 km o més
Cel clar

METAR: BGTL 210356Z AUTO 10006KT 9999 CLR M05/M10 A2948 RMK AO2 SLP969 T10551103 400111070 TSNO $

Hora: 01:38 (04:38 UTC)

Pronòstic

L'informe es va fer fa 11 hores i 38 minuts, a les 17:00 UTC
Pronòstic vàlid del 20 a les 17 UTC al 21 a les 23 UTC
Vent 6 kt amb direcció variable
Visibilitat 10 km o més
Escasses núvols a una alçada de 18000 ft
Evolucionant progressivament
l' 21 a les 17 UTC al 21 a les 18 UTC
Vent 6 kt del Est/Sud-Est
Visibilitat: 2114 m
Escasses núvols a una alçada de 10000 ft
Núvols disperses a una alçada de 20000 ft

TAF: BGTL 201700Z 2017/2123 VRB06KT 9999 FEW180 QNH2941INS BECMG 2117/2118 11006KT 9999 FEW100 SCT200 QNH2979INS TX00/2018Z TNM07/2109Z LAST NO AMDS AFT 2019 NEXT 2114

Observacions i pronòstics meteorològics de més de 4000 aeroports (METAR i TAF).

Les estacions disponibles són els punts grocs i vermells al mapa.

Posi el ratolí al punt desitjat per veure el nom de l'estació.

Feu clic per veure les observacions i els pronòstics meteorològics.

Per canviar el mapa: feu clic els botons verds amb una creu de color negre per apropar; al botó verd amb un guió per allunyar la imatge; o en les fletxes verdes per a mapes adjacents.


METAR-TAF: